createdAt,value
2019-01-16T00:02:25.781Z,28.93
2019-01-16T00:05:20.752Z,28.90
2019-01-16T00:08:08.309Z,35.63
2019-01-16T00:11:12.988Z,30.53
2019-01-16T00:14:01.884Z,35.90
2019-01-16T00:17:05.876Z,29.83
2019-01-16T00:20:00.612Z,33.03
2019-01-16T00:22:48.430Z,36.80
2019-01-16T00:25:36.349Z,33.20
2019-01-16T00:28:24.114Z,31.70
2019-01-16T00:31:07.593Z,27.87
2019-01-16T00:33:55.405Z,27.47
2019-01-16T00:36:43.279Z,28.67
2019-01-16T00:39:32.168Z,29.87
2019-01-16T00:42:22.705Z,31.33
2019-01-16T00:45:04.555Z,31.00
2019-01-16T00:47:47.084Z,25.00
2019-01-16T00:50:41.907Z,27.37
2019-01-16T00:53:24.302Z,24.50
2019-01-16T00:56:25.705Z,24.70
2019-01-16T00:59:14.603Z,22.87
2019-01-16T01:02:15.853Z,27.13
2019-01-16T01:05:01.101Z,25.70
2019-01-16T01:07:43.628Z,21.47
2019-01-16T01:10:31.097Z,30.77
2019-01-16T01:13:29.330Z,24.50
2019-01-16T01:16:33.381Z,24.47
2019-01-16T01:19:40.579Z,26.33
2019-01-16T01:22:21.615Z,22.63
2019-01-16T01:25:14.980Z,22.53
2019-01-16T01:28:02.735Z,23.30
2019-01-16T01:30:57.599Z,23.70
2019-01-16T01:33:48.623Z,23.00
2019-01-16T01:36:42.327Z,23.40
2019-01-16T01:39:30.346Z,27.03
2019-01-16T01:42:37.417Z,24.40
2019-01-16T01:45:19.304Z,25.40
2019-01-16T01:48:04.253Z,24.57
2019-01-16T01:50:51.904Z,28.53
2019-01-16T01:53:39.506Z,20.40
2019-01-16T01:56:43.534Z,20.50
2019-01-16T01:59:38.652Z,21.60
2019-01-16T02:02:30.461Z,20.90
2019-01-16T02:05:18.112Z,21.43
2019-01-16T02:08:06.745Z,25.70
2019-01-16T02:11:01.446Z,20.13
2019-01-16T02:13:48.512Z,20.50
2019-01-16T02:16:46.453Z,22.47
2019-01-16T02:19:34.278Z,19.87
2019-01-16T02:22:22.139Z,24.67
2019-01-16T02:25:09.897Z,20.07
2019-01-16T02:28:04.653Z,18.10
2019-01-16T02:31:08.542Z,23.43
2019-01-16T02:34:03.554Z,18.83
2019-01-16T02:36:55.913Z,19.03
2019-01-16T02:39:52.681Z,25.60
2019-01-16T02:42:40.187Z,22.10
2019-01-16T02:45:28.017Z,25.70
2019-01-16T02:48:15.896Z,20.10
2019-01-16T02:51:14.037Z,21.50
2019-01-16T02:53:51.761Z,26.07
2019-01-16T02:56:43.535Z,23.70
2019-01-16T02:59:35.232Z,22.80
2019-01-16T03:02:25.119Z,25.53
2019-01-16T03:05:14.005Z,23.83
2019-01-16T03:08:09.339Z,26.43
2019-01-16T03:11:00.848Z,20.30
2019-01-16T03:13:47.181Z,20.87
2019-01-16T03:16:42.385Z,21.87
2019-01-16T03:19:33.199Z,22.77
2019-01-16T03:22:21.512Z,25.93
2019-01-16T03:25:07.320Z,20.27
2019-01-16T03:27:55.092Z,21.57
2019-01-16T03:30:41.987Z,21.00
2019-01-16T03:33:31.750Z,26.97
2019-01-16T03:36:26.420Z,20.67
2019-01-16T03:39:18.374Z,22.00
2019-01-16T03:42:03.533Z,24.00
2019-01-16T03:44:47.190Z,21.93
2019-01-16T03:47:36.253Z,22.27
2019-01-16T03:50:44.280Z,22.70
2019-01-16T03:53:37.240Z,18.80
2019-01-16T03:56:24.757Z,20.13
2019-01-16T03:59:23.750Z,23.47
2019-01-16T04:02:11.861Z,24.93
2019-01-16T04:04:50.832Z,22.37
2019-01-16T04:07:29.199Z,21.83
2019-01-16T04:10:18.113Z,20.03
2019-01-16T04:13:06.410Z,19.20
2019-01-16T04:16:04.686Z,21.10
2019-01-16T04:18:56.611Z,18.63
2019-01-16T04:21:35.147Z,19.93
2019-01-16T04:24:24.657Z,17.93
2019-01-16T04:27:13.553Z,17.67
2019-01-16T04:30:14.562Z,16.97
2019-01-16T04:33:12.791Z,16.70
2019-01-16T04:36:13.838Z,15.88
2019-01-16T04:38:58.522Z,16.87
2019-01-16T04:41:48.112Z,18.03
2019-01-16T04:44:29.505Z,15.20
2019-01-16T04:47:33.764Z,18.20
2019-01-16T04:50:34.579Z,16.00
2019-01-16T04:53:29.320Z,21.40
2019-01-16T04:56:16.944Z,13.13
2019-01-16T04:59:24.371Z,13.03
2019-01-16T05:02:11.121Z,18.27
2019-01-16T05:04:58.549Z,12.63
2019-01-16T05:07:47.445Z,14.47
2019-01-16T05:10:29.083Z,13.30
2019-01-16T05:13:16.849Z,13.47
2019-01-16T05:15:53.926Z,13.40
2019-01-16T05:18:41.745Z,13.73
2019-01-16T05:21:33.745Z,13.17
2019-01-16T05:24:32.661Z,15.63
2019-01-16T05:27:20.543Z,14.73
2019-01-16T05:30:13.955Z,15.50
2019-01-16T05:32:53.901Z,16.37
2019-01-16T05:35:46.068Z,16.50
2019-01-16T05:38:44.801Z,14.70
2019-01-16T05:41:30.307Z,13.50
2019-01-16T05:44:17.878Z,16.87
2019-01-16T05:47:02.281Z,14.23
2019-01-16T05:49:49.762Z,14.50
2019-01-16T05:52:51.078Z,15.20
2019-01-16T05:55:55.079Z,14.03
2019-01-16T05:58:33.672Z,18.10
2019-01-16T06:01:28.790Z,18.27
2019-01-16T06:04:24.020Z,17.80
2019-01-16T06:07:10.822Z,17.90
2019-01-16T06:09:58.000Z,17.07
2019-01-16T06:12:45.900Z,21.23
2019-01-16T06:15:34.244Z,23.13
2019-01-16T06:18:21.784Z,16.70
2019-01-16T06:21:10.701Z,16.43
2019-01-16T06:23:58.341Z,20.60
2019-01-16T06:26:36.751Z,22.30
2019-01-16T06:29:25.648Z,24.70
2019-01-16T06:32:13.527Z,23.23
2019-01-16T06:35:03.937Z,29.10
2019-01-16T06:38:05.254Z,18.20
2019-01-16T06:40:54.151Z,27.43
2019-01-16T06:43:43.064Z,17.03
2019-01-16T06:46:36.100Z,16.37
2019-01-16T06:49:29.147Z,15.47
2019-01-16T06:52:21.380Z,20.30
2019-01-16T06:55:10.243Z,16.90
2019-01-16T06:58:02.421Z,18.37
2019-01-16T07:00:44.961Z,17.40
2019-01-16T07:03:33.065Z,15.63
2019-01-16T07:06:24.839Z,20.77
2019-01-16T07:09:16.675Z,19.77
2019-01-16T07:12:04.288Z,16.10
2019-01-16T07:15:05.327Z,16.00
2019-01-16T07:17:49.735Z,14.17
2019-01-16T07:20:35.372Z,17.43
2019-01-16T07:23:33.340Z,13.00
2019-01-16T07:26:21.096Z,14.30
2019-01-16T07:29:21.670Z,13.73
2019-01-16T07:32:25.992Z,13.90
2019-01-16T07:35:11.660Z,12.80
2019-01-16T07:38:09.100Z,13.67
2019-01-16T07:40:57.986Z,15.27
2019-01-16T07:43:45.493Z,18.03
2019-01-16T07:46:36.812Z,15.00
2019-01-16T07:49:31.661Z,14.70
2019-01-16T07:52:15.168Z,19.23
2019-01-16T07:55:02.736Z,13.70
2019-01-16T07:58:09.996Z,11.50
2019-01-16T08:01:11.092Z,16.37
2019-01-16T08:04:00.388Z,11.83
2019-01-16T08:06:47.916Z,11.10
2019-01-16T08:09:48.951Z,13.10
2019-01-16T08:12:37.836Z,11.60
2019-01-16T08:15:27.031Z,11.03
2019-01-16T08:18:06.342Z,12.57
2019-01-16T08:21:01.112Z,12.53
2019-01-16T08:23:48.936Z,10.83
2019-01-16T08:26:40.677Z,13.80
2019-01-16T08:29:27.437Z,11.60
2019-01-16T08:32:15.040Z,12.60
2019-01-16T08:35:03.113Z,10.20
2019-01-16T08:38:07.139Z,12.60
2019-01-16T08:40:56.013Z,11.00
2019-01-16T08:43:50.423Z,9.80
2019-01-16T08:46:39.349Z,11.73
2019-01-16T08:49:27.267Z,11.63
2019-01-16T08:52:16.255Z,10.80
2019-01-16T08:55:11.468Z,11.00
2019-01-16T08:58:00.348Z,10.63
2019-01-16T09:00:46.031Z,15.33
2019-01-16T09:03:47.800Z,13.83
2019-01-16T09:06:33.618Z,11.00
2019-01-16T09:09:19.564Z,11.73
2019-01-16T09:12:07.092Z,16.33
2019-01-16T09:14:58.938Z,11.73
2019-01-16T09:17:59.986Z,9.67
2019-01-16T09:21:01.212Z,9.80
2019-01-16T09:24:02.525Z,13.53
2019-01-16T09:26:57.652Z,11.50
2019-01-16T09:29:47.556Z,13.17
2019-01-16T09:32:45.468Z,12.73
2019-01-16T09:35:25.983Z,11.70
2019-01-16T09:38:26.979Z,12.47
2019-01-16T09:41:19.584Z,15.87
2019-01-16T09:43:56.451Z,10.63
2019-01-16T09:46:45.541Z,11.57
2019-01-16T09:49:31.728Z,11.13
2019-01-16T09:52:19.234Z,11.90
2019-01-16T09:55:07.128Z,10.70
2019-01-16T09:57:55.524Z,10.57
2019-01-16T10:00:34.671Z,12.50
2019-01-16T10:03:22.772Z,10.40
2019-01-16T10:06:00.936Z,10.80
2019-01-16T10:08:52.808Z,13.40
2019-01-16T10:11:51.645Z,10.53
2019-01-16T10:14:49.377Z,11.40
2019-01-16T10:17:35.569Z,11.07
2019-01-16T10:20:28.219Z,8.80
2019-01-16T10:23:16.064Z,8.67
2019-01-16T10:26:10.867Z,11.90
2019-01-16T10:28:58.485Z,12.90
2019-01-16T10:31:46.623Z,7.10
2019-01-16T10:34:53.934Z,7.77
2019-01-16T10:37:52.092Z,11.30
2019-01-16T10:40:41.094Z,7.30
2019-01-16T10:43:36.429Z,8.30
2019-01-16T10:46:24.252Z,8.40
2019-01-16T10:49:13.129Z,10.43
2019-01-16T10:52:05.029Z,7.37
2019-01-16T10:54:49.565Z,8.53
2019-01-16T10:57:37.451Z,8.70
2019-01-16T11:00:28.403Z,9.37
2019-01-16T11:03:16.339Z,8.47
2019-01-16T11:06:00.627Z,11.67
2019-01-16T11:08:52.592Z,10.00
2019-01-16T11:11:33.527Z,8.50
2019-01-16T11:14:21.119Z,7.17
2019-01-16T11:17:08.956Z,8.30
2019-01-16T11:20:12.995Z,8.00
2019-01-16T11:23:01.582Z,6.73
2019-01-16T11:25:56.257Z,6.63
2019-01-16T11:28:51.718Z,10.57
2019-01-16T11:31:39.976Z,7.60
2019-01-16T11:34:27.575Z,6.47
2019-01-16T11:37:26.344Z,12.30
2019-01-16T11:40:18.570Z,7.97
2019-01-16T11:42:56.780Z,8.40
2019-01-16T11:45:44.331Z,9.60
2019-01-16T11:48:27.361Z,7.90
2019-01-16T11:51:22.318Z,7.27
2019-01-16T11:54:20.132Z,8.33
2019-01-16T11:57:15.475Z,6.77
2019-01-16T12:00:16.743Z,6.10
2019-01-16T12:03:11.491Z,7.10
2019-01-16T12:05:58.489Z,8.93
2019-01-16T12:08:50.315Z,7.50
2019-01-16T12:11:50.946Z,7.07
2019-01-16T12:14:38.963Z,6.80
2019-01-16T12:17:38.848Z,5.97
2019-01-16T12:20:26.799Z,6.80
2019-01-16T12:23:18.612Z,12.27
2019-01-16T12:26:10.320Z,12.13
2019-01-16T12:29:17.769Z,7.43
2019-01-16T12:32:06.065Z,7.83
2019-01-16T12:34:54.974Z,7.83
2019-01-16T12:37:43.881Z,8.87
2019-01-16T12:40:45.179Z,9.60
2019-01-16T12:43:43.512Z,6.60
2019-01-16T12:46:29.266Z,7.30
2019-01-16T12:49:21.452Z,6.77
2019-01-16T12:52:12.832Z,9.73
2019-01-16T12:55:04.751Z,8.50
2019-01-16T12:57:59.768Z,8.43
2019-01-16T13:00:47.580Z,6.13
2019-01-16T13:03:39.436Z,7.63
2019-01-16T13:06:28.370Z,9.40
2019-01-16T13:09:06.739Z,6.93
2019-01-16T13:11:44.800Z,7.83
2019-01-16T13:14:49.021Z,8.00
2019-01-16T13:17:36.483Z,9.20
2019-01-16T13:20:38.170Z,7.03
2019-01-16T13:23:36.075Z,6.93
2019-01-16T13:26:20.843Z,9.33
2019-01-16T13:29:18.035Z,9.07
2019-01-16T13:32:10.063Z,10.60
2019-01-16T13:34:56.032Z,9.57
2019-01-16T13:37:51.072Z,13.50
2019-01-16T13:40:39.327Z,10.20
2019-01-16T13:43:24.392Z,11.60
2019-01-16T13:46:11.891Z,12.07
2019-01-16T13:48:59.911Z,10.00
2019-01-16T13:51:47.735Z,10.67
2019-01-16T13:54:28.533Z,11.27
2019-01-16T13:57:32.625Z,12.37
2019-01-16T14:00:21.719Z,13.30
2019-01-16T14:03:06.868Z,19.30
2019-01-16T14:05:48.287Z,11.20
2019-01-16T14:08:36.087Z,16.80
2019-01-16T14:11:34.501Z,15.23
2019-01-16T14:14:32.830Z,17.17
2019-01-16T14:17:23.039Z,15.40
2019-01-16T14:20:06.291Z,13.50
2019-01-16T14:22:54.189Z,11.77
2019-01-16T14:25:52.237Z,15.47
2019-01-16T14:28:41.117Z,14.00
2019-01-16T14:31:31.379Z,18.17
2019-01-16T14:34:18.992Z,12.87
2019-01-16T14:37:26.407Z,14.83
2019-01-16T14:40:23.363Z,18.30
2019-01-16T14:43:20.957Z,17.03
2019-01-16T14:46:13.551Z,14.70
2019-01-16T14:49:09.388Z,17.73
2019-01-16T14:51:50.671Z,15.63
2019-01-16T14:54:38.278Z,15.93
2019-01-16T14:57:30.087Z,17.80
2019-01-16T15:00:22.113Z,17.30
2019-01-16T15:03:10.052Z,17.80
2019-01-16T15:06:05.391Z,15.10
2019-01-16T15:08:57.073Z,21.50
2019-01-16T15:11:57.914Z,17.40
2019-01-16T15:14:41.152Z,17.73
2019-01-16T15:17:30.147Z,19.97
2019-01-16T15:20:28.391Z,19.50
2019-01-16T15:23:17.597Z,17.30
2019-01-16T15:25:54.491Z,19.40
2019-01-16T15:28:45.074Z,16.47
2019-01-16T15:31:32.882Z,17.73
2019-01-16T15:34:30.879Z,23.53
2019-01-16T15:37:35.093Z,24.83
2019-01-16T15:40:31.900Z,18.67
2019-01-16T15:43:16.178Z,23.20
2019-01-16T15:46:09.968Z,23.83
2019-01-16T15:48:57.814Z,25.37
2019-01-16T15:52:02.019Z,19.53
2019-01-16T15:54:42.773Z,16.80
2019-01-16T15:57:30.663Z,14.70
2019-01-16T16:00:20.205Z,19.20
2019-01-16T16:03:11.940Z,19.37
2019-01-16T16:05:57.011Z,21.10
2019-01-16T16:08:44.943Z,15.80
2019-01-16T16:11:32.155Z,17.03
2019-01-16T16:14:20.004Z,17.90
2019-01-16T16:17:07.857Z,15.97
2019-01-16T16:20:05.913Z,17.60
2019-01-16T16:22:46.506Z,19.80
2019-01-16T16:25:48.060Z,21.17
2019-01-16T16:28:35.846Z,14.93
2019-01-16T16:31:24.828Z,16.57
2019-01-16T16:34:16.923Z,15.40
2019-01-16T16:37:21.163Z,15.63
2019-01-16T16:40:10.359Z,17.37
2019-01-16T16:43:02.040Z,14.07
2019-01-16T16:45:39.236Z,18.33
2019-01-16T16:48:39.404Z,16.70
2019-01-16T16:51:19.003Z,16.43
2019-01-16T16:54:06.808Z,22.67
2019-01-16T16:57:10.848Z,15.13
2019-01-16T17:00:02.746Z,14.70
2019-01-16T17:02:57.152Z,14.63
2019-01-16T17:05:45.074Z,70.73
2019-01-16T17:08:46.284Z,21.57
2019-01-16T17:11:38.236Z,17.50
2019-01-16T17:14:32.965Z,20.77
2019-01-16T17:17:12.940Z,15.00
2019-01-16T17:19:59.371Z,19.60
2019-01-16T17:22:47.275Z,23.53
2019-01-16T17:25:32.402Z,40.87
2019-01-16T17:28:20.159Z,12.83
2019-01-16T17:31:06.646Z,11.73
2019-01-16T17:33:55.104Z,32.27
2019-01-16T17:36:50.382Z,12.13
2019-01-16T17:39:51.591Z,17.70
2019-01-16T17:42:43.034Z,12.77
2019-01-16T17:45:50.496Z,52.57
2019-01-16T17:48:34.306Z,19.70
2019-01-16T17:51:38.741Z,16.70
2019-01-16T17:54:34.478Z,43.30
2019-01-16T17:57:22.025Z,40.17
2019-01-16T18:00:09.687Z,19.43
2019-01-16T18:03:04.829Z,18.30
2019-01-16T18:05:48.031Z,15.10
2019-01-16T18:08:37.390Z,17.87
2019-01-16T18:11:25.340Z,32.00
2019-01-16T18:14:23.699Z,16.90
2019-01-16T18:17:18.511Z,13.23
2019-01-16T18:19:57.680Z,13.93
2019-01-16T18:22:49.624Z,18.43
2019-01-16T18:25:47.561Z,14.33
2019-01-16T18:28:40.489Z,13.90
2019-01-16T18:31:28.158Z,20.80
2019-01-16T18:34:15.668Z,17.60
2019-01-16T18:37:03.472Z,16.27
2019-01-16T18:39:58.455Z,17.20
2019-01-16T18:42:43.869Z,21.50
2019-01-16T18:45:41.993Z,11.80
2019-01-16T18:48:34.484Z,18.80
2019-01-16T18:51:38.720Z,11.97
2019-01-16T18:54:33.548Z,13.97
2019-01-16T18:57:22.276Z,14.30
2019-01-16T19:00:09.919Z,13.70
2019-01-16T19:03:01.941Z,11.90
2019-01-16T19:05:53.955Z,27.23
2019-01-16T19:08:42.933Z,12.20
2019-01-16T19:11:41.182Z,22.07
2019-01-16T19:14:29.807Z,24.10
2019-01-16T19:17:08.089Z,20.77
2019-01-16T19:20:12.355Z,17.27
2019-01-16T19:23:00.131Z,14.70
2019-01-16T19:25:47.730Z,22.10
2019-01-16T19:28:42.035Z,18.97
2019-01-16T19:31:39.500Z,17.13
2019-01-16T19:34:21.535Z,12.63
2019-01-16T19:37:22.739Z,14.87
2019-01-16T19:40:15.025Z,12.60
2019-01-16T19:43:02.799Z,14.33
2019-01-16T19:45:50.152Z,19.27
2019-01-16T19:48:57.444Z,14.30
2019-01-16T19:51:43.471Z,16.20
2019-01-16T19:54:50.809Z,14.17
2019-01-16T19:57:48.656Z,16.90
2019-01-16T20:00:38.292Z,16.23
2019-01-16T20:03:26.212Z,18.13
2019-01-16T20:06:18.061Z,13.40
2019-01-16T20:09:15.979Z,21.50
2019-01-16T20:12:03.588Z,12.43
2019-01-16T20:14:41.431Z,14.60
2019-01-16T20:17:39.185Z,17.67
2019-01-16T20:20:40.237Z,15.17
2019-01-16T20:23:28.056Z,17.07
2019-01-16T20:26:19.982Z,17.10
2019-01-16T20:29:08.974Z,19.63
2019-01-16T20:31:48.660Z,14.67
2019-01-16T20:34:40.673Z,13.70
2019-01-16T20:37:25.130Z,18.77
2019-01-16T20:40:17.051Z,31.73
2019-01-16T20:43:06.132Z,16.10
2019-01-16T20:45:44.222Z,19.03
2019-01-16T20:48:46.031Z,16.60
2019-01-16T20:51:30.336Z,16.90
2019-01-16T20:54:17.061Z,17.83
2019-01-16T20:57:18.236Z,15.70
2019-01-16T21:00:13.504Z,16.30
2019-01-16T21:03:05.304Z,17.40
2019-01-16T21:05:54.739Z,19.50
2019-01-16T21:08:42.685Z,18.97
2019-01-16T21:11:20.544Z,18.17
2019-01-16T21:14:03.184Z,19.93
2019-01-16T21:16:55.253Z,18.80
2019-01-16T21:19:42.802Z,17.93
2019-01-16T21:22:42.546Z,16.37
2019-01-16T21:25:30.639Z,15.63
2019-01-16T21:28:19.568Z,19.23
2019-01-16T21:31:07.581Z,20.97
2019-01-16T21:33:55.248Z,14.03
2019-01-16T21:36:42.966Z,20.50
2019-01-16T21:39:25.066Z,22.93
2019-01-16T21:42:13.973Z,16.60
2019-01-16T21:45:05.698Z,24.93
2019-01-16T21:47:49.824Z,18.80
2019-01-16T21:50:33.478Z,29.73
2019-01-16T21:53:14.200Z,16.70
2019-01-16T21:56:04.464Z,20.73
2019-01-16T21:58:56.421Z,16.03
2019-01-16T22:02:03.524Z,16.23
2019-01-16T22:04:58.241Z,15.53
2019-01-16T22:07:49.724Z,21.50
2019-01-16T22:10:37.465Z,22.60
2019-01-16T22:13:35.659Z,22.37
2019-01-16T22:16:27.972Z,29.13
2019-01-16T22:19:09.582Z,19.03
2019-01-16T22:22:07.615Z,18.73
2019-01-16T22:24:57.294Z,18.07
2019-01-16T22:27:39.420Z,23.03
2019-01-16T22:30:36.994Z,32.30
2019-01-16T22:33:30.764Z,27.40
2019-01-16T22:36:15.427Z,20.43
2019-01-16T22:39:04.393Z,17.90
2019-01-16T22:41:51.614Z,23.90
2019-01-16T22:44:31.973Z,20.43
2019-01-16T22:47:20.722Z,20.07
2019-01-16T22:50:18.689Z,17.93
2019-01-16T22:53:13.924Z,23.40
2019-01-16T22:55:51.613Z,17.10
2019-01-16T22:58:28.901Z,21.63
2019-01-16T23:01:21.768Z,16.80
2019-01-16T23:04:19.576Z,21.70
2019-01-16T23:07:06.783Z,22.40
2019-01-16T23:09:58.444Z,17.37
2019-01-16T23:12:46.183Z,20.33
2019-01-16T23:15:40.477Z,19.33
2019-01-16T23:18:28.017Z,18.03
2019-01-16T23:21:14.846Z,18.93
2019-01-16T23:24:08.357Z,19.83
2019-01-16T23:26:55.957Z,20.00
2019-01-16T23:29:32.979Z,19.93
2019-01-16T23:32:27.936Z,18.57
2019-01-16T23:35:12.148Z,20.63
2019-01-16T23:37:54.957Z,18.97
2019-01-16T23:40:42.741Z,22.53
2019-01-16T23:43:43.721Z,19.77
2019-01-16T23:46:31.696Z,23.13
2019-01-16T23:49:12.348Z,20.70
2019-01-16T23:52:10.452Z,24.60
2019-01-16T23:54:59.340Z,21.00
2019-01-16T23:57:45.228Z,13.40
